sensor_id;sensor_type;location;lat;lon;timestamp;pressure;altitude;pressure_sealevel;temperature;humidity
70072;BME280;57434;42.794;23.302;2023-03-31T00:00:06;95642.63;;;5.82;63.48
70072;BME280;57434;42.794;23.302;2023-03-31T00:01:08;95506.31;;;5.14;63.33
70072;BME280;57434;42.794;23.302;2023-03-31T00:02:10;95619.88;;;5.92;63.60
70072;BME280;57434;42.794;23.302;2023-03-31T00:03:12;95611.84;;;5.94;63.04
70072;BME280;57434;42.794;23.302;2023-03-31T00:04:14;95527.06;;;5.40;62.86
70072;BME280;57434;42.794;23.302;2023-03-31T00:05:16;95621.75;;;6.23;62.36
70072;BME280;57434;42.794;23.302;2023-03-31T00:06:18;95627.03;;;6.02;63.05
70072;BME280;57434;42.794;23.302;2023-03-31T00:07:20;95508.22;;;5.44;62.09
70072;BME280;57434;42.794;23.302;2023-03-31T00:08:22;95623.16;;;6.00;63.21
70072;BME280;57434;42.794;23.302;2023-03-31T00:09:24;95618.38;;;6.00;63.04
70072;BME280;57434;42.794;23.302;2023-03-31T00:10:31;95639.09;;;6.08;62.63
70072;BME280;57434;42.794;23.302;2023-03-31T00:11:33;95504.78;;;5.22;63.18
70072;BME280;57434;42.794;23.302;2023-03-31T00:12:35;95614.63;;;5.94;62.79
70072;BME280;57434;42.794;23.302;2023-03-31T00:13:37;95632.59;;;6.02;62.70
70072;BME280;57434;42.794;23.302;2023-03-31T00:14:39;95483.13;;;5.08;63.41
70072;BME280;57434;42.794;23.302;2023-03-31T00:15:41;95614.63;;;5.85;63.71
70072;BME280;57434;42.794;23.302;2023-03-31T00:16:44;95605.97;;;5.83;63.70
70072;BME280;57434;42.794;23.302;2023-03-31T00:17:46;95604.56;;;5.88;63.69
70072;BME280;57434;42.794;23.302;2023-03-31T00:18:48;95616.03;;;5.99;63.26
70072;BME280;57434;42.794;23.302;2023-03-31T00:19:49;95615.88;;;6.02;62.92
70072;BME280;57434;42.794;23.302;2023-03-31T00:20:58;95468.16;;;5.24;62.86
70072;BME280;57434;42.794;23.302;2023-03-31T00:22:02;95635.22;;;6.15;63.67
70072;BME280;57434;42.794;23.302;2023-03-31T00:23:04;95609.84;;;5.95;64.33
70072;BME280;57434;42.794;23.302;2023-03-31T00:24:06;95598.72;;;6.04;64.19
70072;BME280;57434;42.794;23.302;2023-03-31T00:25:08;95600.88;;;6.00;64.34
70072;BME280;57434;42.794;23.302;2023-03-31T00:26:10;95600.09;;;5.99;64.47
70072;BME280;57434;42.794;23.302;2023-03-31T00:27:12;95493.34;;;5.38;63.85
70072;BME280;57434;42.794;23.302;2023-03-31T00:28:13;95619.56;;;5.90;63.36
70072;BME280;57434;42.794;23.302;2023-03-31T00:29:15;95518.59;;;5.53;63.35
70072;BME280;57434;42.794;23.302;2023-03-31T00:30:17;95631.50;;;6.18;64.07
70072;BME280;57434;42.794;23.302;2023-03-31T00:31:19;95604.56;;;6.15;64.40
70072;BME280;57434;42.794;23.302;2023-03-31T00:32:21;95639.72;;;6.31;64.22
70072;BME280;57434;42.794;23.302;2023-03-31T00:33:23;95620.69;;;6.11;63.99
70072;BME280;57434;42.794;23.302;2023-03-31T00:34:26;95622.97;;;6.40;62.97
70072;BME280;57434;42.794;23.302;2023-03-31T00:35:27;95607.22;;;6.37;63.36
70072;BME280;57434;42.794;23.302;2023-03-31T00:36:29;95631.03;;;6.56;63.44
70072;BME280;57434;42.794;23.302;2023-03-31T00:37:31;95639.09;;;6.54;64.48
70072;BME280;57434;42.794;23.302;2023-03-31T00:38:33;95484.09;;;5.69;64.67
70072;BME280;57434;42.794;23.302;2023-03-31T00:39:35;95497.69;;;5.85;63.71
70072;BME280;57434;42.794;23.302;2023-03-31T00:40:43;95557.53;;;6.17;63.66
70072;BME280;57434;42.794;23.302;2023-03-31T00:41:45;95598.53;;;6.53;63.51
70072;BME280;57434;42.794;23.302;2023-03-31T00:42:47;95588.19;;;6.35;64.00
70072;BME280;57434;42.794;23.302;2023-03-31T00:44:09;95601.13;;;6.66;63.67
70072;BME280;57434;42.794;23.302;2023-03-31T00:46:32;95596.81;;;6.46;63.46
70072;BME280;57434;42.794;23.302;2023-03-31T00:47:35;95585.63;;;6.74;63.35
70072;BME280;57434;42.794;23.302;2023-03-31T00:48:36;95582.19;;;6.79;63.64
70072;BME280;57434;42.794;23.302;2023-03-31T00:49:49;95606.50;;;6.88;63.84
70072;BME280;57434;42.794;23.302;2023-03-31T00:50:56;95479.06;;;6.19;64.50
70072;BME280;57434;42.794;23.302;2023-03-31T00:52:10;95536.59;;;6.49;65.09
70072;BME280;57434;42.794;23.302;2023-03-31T00:53:16;95578.53;;;7.06;63.47
70072;BME280;57434;42.794;23.302;2023-03-31T00:54:20;95590.31;;;7.10;64.18
70072;BME280;57434;42.794;23.302;2023-03-31T00:55:26;95428.69;;;6.07;64.49
70072;BME280;57434;42.794;23.302;2023-03-31T00:56:34;95586.94;;;6.97;65.24
70072;BME280;57434;42.794;23.302;2023-03-31T00:57:39;95580.41;;;7.00;65.97
70072;BME280;57434;42.794;23.302;2023-03-31T00:58:42;95566.81;;;6.93;66.47
70072;BME280;57434;42.794;23.302;2023-03-31T00:59:54;95565.38;;;6.97;66.65
70072;BME280;57434;42.794;23.302;2023-03-31T01:01:00;95578.69;;;7.02;67.31
70072;BME280;57434;42.794;23.302;2023-03-31T01:02:32;95585.50;;;7.10;66.29
70072;BME280;57434;42.794;23.302;2023-03-31T01:03:34;95579.44;;;7.12;66.68
70072;BME280;57434;42.794;23.302;2023-03-31T01:04:40;95576.06;;;6.99;66.89
70072;BME280;57434;42.794;23.302;2023-03-31T01:05:46;95422.81;;;6.05;67.28
70072;BME280;57434;42.794;23.302;2023-03-31T01:07:07;95465.44;;;6.30;68.46
70072;BME280;57434;42.794;23.302;2023-03-31T01:08:11;95596.84;;;6.98;68.13
70072;BME280;57434;42.794;23.302;2023-03-31T01:09:13;95579.91;;;7.10;66.35
70072;BME280;57434;42.794;23.302;2023-03-31T01:10:15;95422.44;;;6.22;65.11
70072;BME280;57434;42.794;23.302;2023-03-31T01:11:19;95457.63;;;6.43;66.40
70072;BME280;57434;42.794;23.302;2023-03-31T01:12:23;95569.84;;;7.13;66.83
70072;BME280;57434;42.794;23.302;2023-03-31T01:13:25;95564.88;;;7.17;64.85
70072;BME280;57434;42.794;23.302;2023-03-31T01:14:28;95452.22;;;6.39;64.87
70072;BME280;57434;42.794;23.302;2023-03-31T01:15:29;95583.72;;;7.22;64.75
70072;BME280;57434;42.794;23.302;2023-03-31T01:16:31;95573.28;;;7.41;64.62
70072;BME280;57434;42.794;23.302;2023-03-31T01:17:33;95605.25;;;7.40;65.47
70072;BME280;57434;42.794;23.302;2023-03-31T01:18:36;95520.69;;;6.82;64.97
70072;BME280;57434;42.794;23.302;2023-03-31T01:21:16;95581.53;;;7.35;65.85
70072;BME280;57434;42.794;23.302;2023-03-31T01:26:55;95589.59;;;7.24;64.94
70072;BME280;57434;42.794;23.302;2023-03-31T01:36:24;95618.84;;;7.47;64.92
70072;BME280;57434;42.794;23.302;2023-03-31T01:45:28;95603.41;;;7.61;63.32
70072;BME280;57434;42.794;23.302;2023-03-31T01:46:44;95596.28;;;7.60;62.49
70072;BME280;57434;42.794;23.302;2023-03-31T01:48:02;95597.41;;;7.77;61.55
70072;BME280;57434;42.794;23.302;2023-03-31T01:50:34;95589.22;;;7.97;61.16
70072;BME280;57434;42.794;23.302;2023-03-31T01:52:07;95596.69;;;8.15;60.28
70072;BME280;57434;42.794;23.302;2023-03-31T01:56:06;95492.09;;;7.54;58.58
70072;BME280;57434;42.794;23.302;2023-03-31T01:57:15;95610.19;;;8.31;58.39
70072;BME280;57434;42.794;23.302;2023-03-31T01:58:22;95522.78;;;7.77;58.08
70072;BME280;57434;42.794;23.302;2023-03-31T01:59:39;95633.56;;;8.43;57.82
70072;BME280;57434;42.794;23.302;2023-03-31T02:00:50;95605.03;;;8.39;58.21
70072;BME280;57434;42.794;23.302;2023-03-31T02:03:00;95641.78;;;8.46;57.48
70072;BME280;57434;42.794;23.302;2023-03-31T02:04:21;95623.63;;;8.42;57.47
70072;BME280;57434;42.794;23.302;2023-03-31T02:05:27;95632.91;;;8.48;57.27
70072;BME280;57434;42.794;23.302;2023-03-31T02:06:36;95626.34;;;8.51;57.33
70072;BME280;57434;42.794;23.302;2023-03-31T02:07:43;95623.28;;;8.49;57.53
70072;BME280;57434;42.794;23.302;2023-03-31T02:08:50;95627.72;;;8.56;57.14
70072;BME280;57434;42.794;23.302;2023-03-31T02:09:58;95564.56;;;8.10;56.90
70072;BME280;57434;42.794;23.302;2023-03-31T02:11:02;95604.06;;;8.42;57.34
70072;BME280;57434;42.794;23.302;2023-03-31T02:12:07;95613.03;;;8.46;56.65
70072;BME280;57434;42.794;23.302;2023-03-31T02:13:12;95618.25;;;8.53;56.98
70072;BME280;57434;42.794;23.302;2023-03-31T02:14:19;95621.34;;;8.55;56.36
70072;BME280;57434;42.794;23.302;2023-03-31T02:15:30;95624.81;;;8.65;56.69
70072;BME280;57434;42.794;23.302;2023-03-31T02:16:37;95507.31;;;7.91;55.50
70072;BME280;57434;42.794;23.302;2023-03-31T02:17:42;95630.44;;;8.79;55.79
70072;BME280;57434;42.794;23.302;2023-03-31T02:18:47;95625.44;;;8.83;56.08
70072;BME280;57434;42.794;23.302;2023-03-31T02:19:51;95610.16;;;8.70;55.26
70072;BME280;57434;42.794;23.302;2023-03-31T02:20:54;95525.28;;;8.14;54.94
70072;BME280;57434;42.794;23.302;2023-03-31T02:22:00;95666.81;;;8.94;55.81
70072;BME280;57434;42.794;23.302;2023-03-31T02:23:03;95525.09;;;8.18;56.55
70072;BME280;57434;42.794;23.302;2023-03-31T02:24:09;95632.19;;;8.77;57.17
70072;BME280;57434;42.794;23.302;2023-03-31T02:25:15;95634.59;;;8.84;58.22
70072;BME280;57434;42.794;23.302;2023-03-31T02:26:23;95597.91;;;8.53;59.10
70072;BME280;57434;42.794;23.302;2023-03-31T02:27:32;95508.88;;;7.92;60.00
70072;BME280;57434;42.794;23.302;2023-03-31T02:28:36;95641.72;;;8.70;60.50
70072;BME280;57434;42.794;23.302;2023-03-31T02:29:39;95642.00;;;8.72;61.11
70072;BME280;57434;42.794;23.302;2023-03-31T02:32:22;95647.31;;;8.70;63.39
70072;BME280;57434;42.794;23.302;2023-03-31T02:33:25;95541.50;;;7.86;65.19
70072;BME280;57434;42.794;23.302;2023-03-31T02:34:28;95664.63;;;8.45;66.10
70072;BME280;57434;42.794;23.302;2023-03-31T02:35:31;95617.53;;;8.29;67.06
70072;BME280;57434;42.794;23.302;2023-03-31T02:36:35;95620.13;;;8.32;67.93
70072;BME280;57434;42.794;23.302;2023-03-31T02:37:38;95543.41;;;7.80;68.77
70072;BME280;57434;42.794;23.302;2023-03-31T02:39:07;95652.00;;;8.49;69.38
70072;BME280;57434;42.794;23.302;2023-03-31T02:40:10;95638.28;;;8.37;70.18
70072;BME280;57434;42.794;23.302;2023-03-31T02:41:13;95552.63;;;7.71;70.84
70072;BME280;57434;42.794;23.302;2023-03-31T02:42:15;95651.59;;;8.42;70.78
70072;BME280;57434;42.794;23.302;2023-03-31T02:43:17;95647.72;;;8.39;71.29
70072;BME280;57434;42.794;23.302;2023-03-31T02:44:19;95548.91;;;7.74;71.34
70072;BME280;57434;42.794;23.302;2023-03-31T02:45:47;95657.00;;;8.45;72.07
70072;BME280;57434;42.794;23.302;2023-03-31T02:46:49;95653.69;;;8.32;72.91
70072;BME280;57434;42.794;23.302;2023-03-31T02:47:52;95643.50;;;8.44;73.05
70072;BME280;57434;42.794;23.302;2023-03-31T02:48:56;95544.81;;;7.75;73.94
70072;BME280;57434;42.794;23.302;2023-03-31T02:50:00;95623.81;;;8.38;74.08
70072;BME280;57434;42.794;23.302;2023-03-31T02:55:23;95508.38;;;7.55;75.16
70072;BME280;57434;42.794;23.302;2023-03-31T02:59:19;95633.59;;;8.19;75.98
70072;BME280;57434;42.794;23.302;2023-03-31T03:02:06;95579.94;;;7.91;75.98
70072;BME280;57434;42.794;23.302;2023-03-31T03:03:27;95640.09;;;8.25;75.53
70072;BME280;57434;42.794;23.302;2023-03-31T03:08:27;95518.22;;;7.65;75.27
70072;BME280;57434;42.794;23.302;2023-03-31T03:10:02;95612.31;;;8.22;75.54
70072;BME280;57434;42.794;23.302;2023-03-31T03:14:02;95599.78;;;8.32;74.81
70072;BME280;57434;42.794;23.302;2023-03-31T03:15:17;95579.97;;;8.30;74.70
70072;BME280;57434;42.794;23.302;2023-03-31T03:17:47;95465.66;;;7.64;74.74
70072;BME280;57434;42.794;23.302;2023-03-31T03:19:01;95550.94;;;8.27;74.34
70072;BME280;57434;42.794;23.302;2023-03-31T03:20:05;95542.63;;;8.18;74.74
70072;BME280;57434;42.794;23.302;2023-03-31T03:21:07;95599.25;;;8.42;74.75
70072;BME280;57434;42.794;23.302;2023-03-31T03:22:09;95580.81;;;8.36;74.69
70072;BME280;57434;42.794;23.302;2023-03-31T03:23:10;95572.81;;;8.29;74.75
70072;BME280;57434;42.794;23.302;2023-03-31T03:24:14;95596.94;;;8.41;74.53
70072;BME280;57434;42.794;23.302;2023-03-31T03:25:17;95477.97;;;7.57;74.94
70072;BME280;57434;42.794;23.302;2023-03-31T03:26:19;95454.34;;;7.43;74.96
70072;BME280;57434;42.794;23.302;2023-03-31T03:27:21;95582.13;;;8.11;74.87
70072;BME280;57434;42.794;23.302;2023-03-31T03:28:22;95476.97;;;7.45;75.61
70072;BME280;57434;42.794;23.302;2023-03-31T03:29:24;95592.75;;;8.22;76.06
70072;BME280;57434;42.794;23.302;2023-03-31T03:30:26;95589.66;;;8.20;76.44
70072;BME280;57434;42.794;23.302;2023-03-31T03:31:28;95570.75;;;8.14;76.39
70072;BME280;57434;42.794;23.302;2023-03-31T03:32:30;95586.97;;;8.25;76.26
70072;BME280;57434;42.794;23.302;2023-03-31T03:33:31;95595.44;;;8.31;76.47
70072;BME280;57434;42.794;23.302;2023-03-31T03:34:33;95598.53;;;8.33;76.90
70072;BME280;57434;42.794;23.302;2023-03-31T03:35:35;95571.81;;;8.17;76.61
70072;BME280;57434;42.794;23.302;2023-03-31T03:36:37;95628.34;;;8.36;76.59
70072;BME280;57434;42.794;23.302;2023-03-31T03:37:39;95603.47;;;8.23;76.20
70072;BME280;57434;42.794;23.302;2023-03-31T03:38:41;95609.41;;;8.16;76.36
70072;BME280;57434;42.794;23.302;2023-03-31T03:39:43;95477.66;;;7.55;75.83
70072;BME280;57434;42.794;23.302;2023-03-31T03:40:45;95577.13;;;8.15;76.17
70072;BME280;57434;42.794;23.302;2023-03-31T03:41:49;95601.63;;;8.35;75.58
70072;BME280;57434;42.794;23.302;2023-03-31T03:42:50;95583.59;;;8.21;76.29
70072;BME280;57434;42.794;23.302;2023-03-31T03:43:52;95610.91;;;8.41;76.57
70072;BME280;57434;42.794;23.302;2023-03-31T03:44:54;95601.44;;;8.24;76.69
70072;BME280;57434;42.794;23.302;2023-03-31T03:45:56;95600.50;;;8.41;77.40
70072;BME280;57434;42.794;23.302;2023-03-31T03:46:57;95466.59;;;7.46;77.12
70072;BME280;57434;42.794;23.302;2023-03-31T03:47:59;95607.78;;;8.24;77.22
70072;BME280;57434;42.794;23.302;2023-03-31T03:49:01;95608.09;;;8.26;77.23
70072;BME280;57434;42.794;23.302;2023-03-31T03:50:03;95591.34;;;8.41;77.03
70072;BME280;57434;42.794;23.302;2023-03-31T03:51:06;95584.50;;;8.42;77.11
70072;BME280;57434;42.794;23.302;2023-03-31T03:52:08;95584.88;;;8.35;77.10
70072;BME280;57434;42.794;23.302;2023-03-31T03:53:09;95576.09;;;8.42;77.04
70072;BME280;57434;42.794;23.302;2023-03-31T03:54:11;95589.72;;;8.49;77.09
70072;BME280;57434;42.794;23.302;2023-03-31T03:55:13;95578.91;;;8.42;77.28
70072;BME280;57434;42.794;23.302;2023-03-31T03:56:15;95577.25;;;8.35;77.53
70072;BME280;57434;42.794;23.302;2023-03-31T03:57:16;95467.69;;;7.63;77.73
70072;BME280;57434;42.794;23.302;2023-03-31T03:58:18;95590.69;;;8.46;77.70
70072;BME280;57434;42.794;23.302;2023-03-31T03:59:20;95450.88;;;7.48;77.91
70072;BME280;57434;42.794;23.302;2023-03-31T04:00:22;95599.72;;;8.41;77.88
70072;BME280;57434;42.794;23.302;2023-03-31T04:01:23;95585.25;;;8.42;77.65
70072;BME280;57434;42.794;23.302;2023-03-31T04:02:25;95474.34;;;7.66;77.16
70072;BME280;57434;42.794;23.302;2023-03-31T04:03:28;95599.59;;;8.35;76.94
70072;BME280;57434;42.794;23.302;2023-03-31T04:04:30;95594.31;;;8.37;76.85
70072;BME280;57434;42.794;23.302;2023-03-31T04:05:32;95602.22;;;8.39;77.16
70072;BME280;57434;42.794;23.302;2023-03-31T04:06:33;95611.38;;;8.39;77.14
70072;BME280;57434;42.794;23.302;2023-03-31T04:07:35;95572.72;;;8.23;77.10
70072;BME280;57434;42.794;23.302;2023-03-31T04:08:37;95592.19;;;8.32;77.18
70072;BME280;57434;42.794;23.302;2023-03-31T04:09:39;95492.63;;;7.67;77.15
70072;BME280;57434;42.794;23.302;2023-03-31T04:10:45;95608.88;;;8.27;77.31
70072;BME280;57434;42.794;23.302;2023-03-31T04:11:47;95554.34;;;8.07;77.25
70072;BME280;57434;42.794;23.302;2023-03-31T04:12:49;95565.16;;;8.14;77.48
70072;BME280;57434;42.794;23.302;2023-03-31T04:13:50;95598.06;;;8.34;77.30
70072;BME280;57434;42.794;23.302;2023-03-31T04:14:52;95483.59;;;7.48;77.42
70072;BME280;57434;42.794;23.302;2023-03-31T04:15:54;95606.72;;;8.22;77.54
70072;BME280;57434;42.794;23.302;2023-03-31T04:16:55;95528.41;;;7.92;77.75
70072;BME280;57434;42.794;23.302;2023-03-31T04:17:57;95493.88;;;7.66;77.83
70072;BME280;57434;42.794;23.302;2023-03-31T04:18:59;95594.59;;;8.25;77.90
70072;BME280;57434;42.794;23.302;2023-03-31T04:20:04;95333.28;;;6.55;77.33
70072;BME280;57434;42.794;23.302;2023-03-31T04:21:08;95562.09;;;8.12;77.66
70072;BME280;57434;42.794;23.302;2023-03-31T04:22:10;95589.69;;;8.34;77.79
70072;BME280;57434;42.794;23.302;2023-03-31T04:23:12;95596.81;;;8.35;77.84
70072;BME280;57434;42.794;23.302;2023-03-31T04:24:13;95587.84;;;8.31;78.01
70072;BME280;57434;42.794;23.302;2023-03-31T04:25:15;95527.28;;;7.99;77.96
70072;BME280;57434;42.794;23.302;2023-03-31T04:26:17;95576.47;;;8.20;77.85
70072;BME280;57434;42.794;23.302;2023-03-31T04:27:19;95585.03;;;8.31;77.96
70072;BME280;57434;42.794;23.302;2023-03-31T04:28:21;95589.06;;;8.15;78.04
70072;BME280;57434;42.794;23.302;2023-03-31T04:29:22;95454.88;;;7.33;78.22
70072;BME280;57434;42.794;23.302;2023-03-31T04:30:26;95572.31;;;8.15;78.64
70072;BME280;57434;42.794;23.302;2023-03-31T04:31:27;95559.16;;;8.07;78.42
70072;BME280;57434;42.794;23.302;2023-03-31T04:32:29;95585.03;;;8.16;78.59
70072;BME280;57434;42.794;23.302;2023-03-31T04:33:31;95590.09;;;8.03;78.49
70072;BME280;57434;42.794;23.302;2023-03-31T04:34:33;95549.69;;;7.90;78.82
70072;BME280;57434;42.794;23.302;2023-03-31T04:35:35;95600.06;;;8.19;78.46
70072;BME280;57434;42.794;23.302;2023-03-31T04:36:37;95586.22;;;8.25;77.60
70072;BME280;57434;42.794;23.302;2023-03-31T04:37:38;95591.81;;;8.25;77.13
70072;BME280;57434;42.794;23.302;2023-03-31T04:38:40;95589.09;;;8.30;76.68
70072;BME280;57434;42.794;23.302;2023-03-31T04:39:42;95584.00;;;8.29;76.21
70072;BME280;57434;42.794;23.302;2023-03-31T04:40:48;95435.56;;;7.20;74.81
70072;BME280;57434;42.794;23.302;2023-03-31T04:41:50;95572.56;;;8.03;75.04
70072;BME280;57434;42.794;23.302;2023-03-31T04:42:52;95575.16;;;8.06;75.19
70072;BME280;57434;42.794;23.302;2023-03-31T04:43:54;95602.34;;;8.06;75.40
70072;BME280;57434;42.794;23.302;2023-03-31T04:44:56;95573.06;;;8.16;75.76
70072;BME280;57434;42.794;23.302;2023-03-31T04:45:57;95576.09;;;8.27;75.33
70072;BME280;57434;42.794;23.302;2023-03-31T04:46:59;95585.56;;;8.30;75.12
70072;BME280;57434;42.794;23.302;2023-03-31T04:48:01;95589.88;;;8.31;74.89
70072;BME280;57434;42.794;23.302;2023-03-31T04:49:02;95599.00;;;8.16;74.77
70072;BME280;57434;42.794;23.302;2023-03-31T04:50:05;95494.09;;;7.53;74.68
70072;BME280;57434;42.794;23.302;2023-03-31T04:51:07;95469.47;;;7.52;74.82
70072;BME280;57434;42.794;23.302;2023-03-31T04:52:09;95529.50;;;7.95;74.79
70072;BME280;57434;42.794;23.302;2023-03-31T04:53:10;95578.66;;;8.16;74.38
70072;BME280;57434;42.794;23.302;2023-03-31T04:54:12;95446.94;;;7.40;74.46
70072;BME280;57434;42.794;23.302;2023-03-31T04:55:14;95553.84;;;7.94;74.57
70072;BME280;57434;42.794;23.302;2023-03-31T04:56:16;95434.13;;;7.25;74.79
70072;BME280;57434;42.794;23.302;2023-03-31T04:57:17;95581.63;;;8.12;75.04
70072;BME280;57434;42.794;23.302;2023-03-31T04:58:19;95596.94;;;8.02;75.66
70072;BME280;57434;42.794;23.302;2023-03-31T04:59:21;95579.22;;;8.05;75.73
70072;BME280;57434;42.794;23.302;2023-03-31T05:00:23;95561.88;;;8.01;75.80
70072;BME280;57434;42.794;23.302;2023-03-31T05:01:25;95569.75;;;8.03;76.01
70072;BME280;57434;42.794;23.302;2023-03-31T05:02:27;95598.53;;;8.18;75.90
70072;BME280;57434;42.794;23.302;2023-03-31T05:03:29;95576.94;;;8.19;75.74
70072;BME280;57434;42.794;23.302;2023-03-31T05:04:31;95568.81;;;8.06;75.83
70072;BME280;57434;42.794;23.302;2023-03-31T05:05:32;95564.16;;;8.03;75.87
70072;BME280;57434;42.794;23.302;2023-03-31T05:06:34;95564.56;;;8.10;75.98
70072;BME280;57434;42.794;23.302;2023-03-31T05:07:36;95569.88;;;8.08;76.32
70072;BME280;57434;42.794;23.302;2023-03-31T05:08:38;95546.06;;;7.98;76.30
70072;BME280;57434;42.794;23.302;2023-03-31T05:09:39;95562.91;;;8.04;76.28
70072;BME280;57434;42.794;23.302;2023-03-31T05:10:41;95558.84;;;7.90;76.28
70072;BME280;57434;42.794;23.302;2023-03-31T05:11:43;95473.16;;;7.34;76.32
70072;BME280;57434;42.794;23.302;2023-03-31T05:12:45;95486.50;;;7.30;76.37
70072;BME280;57434;42.794;23.302;2023-03-31T05:13:46;95536.81;;;7.68;76.39
70072;BME280;57434;42.794;23.302;2023-03-31T05:14:48;95537.81;;;7.80;76.12
70072;BME280;57434;42.794;23.302;2023-03-31T05:15:50;95538.84;;;7.68;75.76
70072;BME280;57434;42.794;23.302;2023-03-31T05:16:51;95557.78;;;7.88;76.08
70072;BME280;57434;42.794;23.302;2023-03-31T05:17:53;95539.91;;;7.70;76.27
70072;BME280;57434;42.794;23.302;2023-03-31T05:18:55;95563.25;;;7.82;76.20
70072;BME280;57434;42.794;23.302;2023-03-31T05:19:57;95487.75;;;7.53;76.29
70072;BME280;57434;42.794;23.302;2023-03-31T05:21:17;95531.63;;;8.00;76.27
70072;BME280;57434;42.794;23.302;2023-03-31T05:22:19;95536.22;;;7.88;76.54
70072;BME280;57434;42.794;23.302;2023-03-31T05:23:21;95578.97;;;8.18;76.56
70072;BME280;57434;42.794;23.302;2023-03-31T05:24:23;95502.09;;;7.84;76.37
70072;BME280;57434;42.794;23.302;2023-03-31T05:25:24;95555.19;;;8.23;76.53
70072;BME280;57434;42.794;23.302;2023-03-31T05:26:26;95546.19;;;8.19;76.27
70072;BME280;57434;42.794;23.302;2023-03-31T05:27:28;95559.69;;;8.20;76.21
70072;BME280;57434;42.794;23.302;2023-03-31T05:28:30;95539.06;;;8.18;76.04
70072;BME280;57434;42.794;23.302;2023-03-31T05:29:33;95516.28;;;7.95;75.84
70072;BME280;57434;42.794;23.302;2023-03-31T05:30:35;95417.47;;;7.39;75.65
70072;BME280;57434;42.794;23.302;2023-03-31T05:31:36;95550.66;;;8.40;75.24
70072;BME280;57434;42.794;23.302;2023-03-31T05:32:38;95406.63;;;7.56;75.00
70072;BME280;57434;42.794;23.302;2023-03-31T05:33:40;95536.38;;;8.38;74.86
70072;BME280;57434;42.794;23.302;2023-03-31T05:34:42;95455.09;;;7.82;73.98
70072;BME280;57434;42.794;23.302;2023-03-31T05:35:44;95563.19;;;8.44;74.29
70072;BME280;57434;42.794;23.302;2023-03-31T05:36:46;95539.75;;;8.42;74.09
70072;BME280;57434;42.794;23.302;2023-03-31T05:37:48;95410.41;;;7.68;73.51
70072;BME280;57434;42.794;23.302;2023-03-31T05:38:49;95538.88;;;8.36;73.83
70072;BME280;57434;42.794;23.302;2023-03-31T05:39:51;95423.78;;;7.64;73.77
70072;BME280;57434;42.794;23.302;2023-03-31T05:40:54;95538.22;;;8.41;73.93
70072;BME280;57434;42.794;23.302;2023-03-31T05:41:56;95418.50;;;7.66;73.85
70072;BME280;57434;42.794;23.302;2023-03-31T05:42:58;95531.47;;;8.47;73.90
70072;BME280;57434;42.794;23.302;2023-03-31T05:43:59;95535.34;;;8.65;73.46
70072;BME280;57434;42.794;23.302;2023-03-31T05:45:02;95531.78;;;8.49;72.63
70072;BME280;57434;42.794;23.302;2023-03-31T05:46:04;95405.59;;;7.83;72.68
70072;BME280;57434;42.794;23.302;2023-03-31T05:47:07;95477.31;;;8.45;72.86
70072;BME280;57434;42.794;23.302;2023-03-31T05:48:08;95544.66;;;8.91;72.88
70072;BME280;57434;42.794;23.302;2023-03-31T05:49:10;95532.22;;;8.92;72.06
70072;BME280;57434;42.794;23.302;2023-03-31T05:50:12;95546.88;;;9.02;71.49
70072;BME280;57434;42.794;23.302;2023-03-31T05:51:15;95544.38;;;9.04;71.43
70072;BME280;57434;42.794;23.302;2023-03-31T05:52:17;95541.38;;;8.93;70.93
70072;BME280;57434;42.794;23.302;2023-03-31T05:53:18;95507.41;;;9.00;71.19
70072;BME280;57434;42.794;23.302;2023-03-31T05:54:20;95489.13;;;8.84;70.96
70072;BME280;57434;42.794;23.302;2023-03-31T05:55:22;95398.97;;;8.25;70.72
70072;BME280;57434;42.794;23.302;2023-03-31T05:56:24;95560.38;;;9.33;69.91
70072;BME280;57434;42.794;23.302;2023-03-31T05:57:25;95548.09;;;9.30;68.88
70072;BME280;57434;42.794;23.302;2023-03-31T05:58:28;95522.63;;;9.28;68.72
70072;BME280;57434;42.794;23.302;2023-03-31T05:59:30;95531.41;;;9.36;68.07
70072;BME280;57434;42.794;23.302;2023-03-31T06:00:33;95421.94;;;8.64;67.81
70072;BME280;57434;42.794;23.302;2023-03-31T06:01:35;95481.84;;;9.07;68.00
70072;BME280;57434;42.794;23.302;2023-03-31T06:02:36;95551.63;;;9.45;67.02
70072;BME280;57434;42.794;23.302;2023-03-31T06:03:39;95576.13;;;9.65;65.91
70072;BME280;57434;42.794;23.302;2023-03-31T06:04:42;95467.84;;;9.07;66.20
70072;BME280;57434;42.794;23.302;2023-03-31T06:05:47;95532.59;;;9.49;66.17
70072;BME280;57434;42.794;23.302;2023-03-31T06:06:49;95557.00;;;9.64;66.54
70072;BME280;57434;42.794;23.302;2023-03-31T06:07:51;95536.84;;;9.45;66.25
70072;BME280;57434;42.794;23.302;2023-03-31T06:08:53;95471.53;;;8.98;66.75
70072;BME280;57434;42.794;23.302;2023-03-31T06:09:55;95579.91;;;9.47;66.87
70072;BME280;57434;42.794;23.302;2023-03-31T06:10:57;95555.94;;;9.26;67.08
70072;BME280;57434;42.794;23.302;2023-03-31T06:11:58;95547.63;;;9.32;67.13
70072;BME280;57434;42.794;23.302;2023-03-31T06:13:00;95543.78;;;9.29;67.62
70072;BME280;57434;42.794;23.302;2023-03-31T06:14:02;95545.88;;;9.34;67.29
70072;BME280;57434;42.794;23.302;2023-03-31T06:15:04;95567.25;;;9.52;66.73
70072;BME280;57434;42.794;23.302;2023-03-31T06:16:08;95478.56;;;8.94;66.06
70072;BME280;57434;42.794;23.302;2023-03-31T06:17:10;95506.13;;;9.15;66.13
70072;BME280;57434;42.794;23.302;2023-03-31T06:18:12;95416.75;;;8.57;66.24
70072;BME280;57434;42.794;23.302;2023-03-31T06:19:14;95563.03;;;9.42;66.43
70072;BME280;57434;42.794;23.302;2023-03-31T06:20:16;95572.47;;;9.44;66.19
70072;BME280;57434;42.794;23.302;2023-03-31T06:21:30;95556.25;;;9.48;66.39
70072;BME280;57434;42.794;23.302;2023-03-31T06:22:32;95565.53;;;9.40;65.38
70072;BME280;57434;42.794;23.302;2023-03-31T06:23:34;95540.09;;;9.38;65.90
70072;BME280;57434;42.794;23.302;2023-03-31T06:24:35;95562.44;;;9.52;65.83
70072;BME280;57434;42.794;23.302;2023-03-31T06:25:37;95562.22;;;9.56;66.29